Time;durP1;ratioP1;P1;durP2;ratioP2;P2;SDS_P1;SDS_P2;PMS_P1;PMS_P2;Temp;Humidity;BMP_temperature;BMP_pressure;BME280_temperature;BME280_humidity;BME280_pressure;Samples;Min_cycle;Max_cycle;Signal;HPM_P1;HPM_P2
2023/04/15 00:01:21;;;;;;;11.05;6.65;;;;;;;10.34;56.50;100634.34;5093691;28;20107;-59
2023/04/15 00:03:47;;;;;;;12.57;7.78;;;;;;;10.28;56.76;100626.78;5095092;28;20467;-59
2023/04/15 00:06:12;;;;;;;13.23;8.10;;;;;;;10.10;57.32;100618.16;5094996;28;20031;-59
2023/04/15 00:08:40;;;;;;;12.57;8.50;;;;;;;10.18;56.70;100624.69;5095349;28;20028;-59
2023/04/15 00:11:06;;;;;;;14.20;8.13;;;;;;;10.16;57.27;100637.22;5094685;28;20016;-59
2023/04/15 00:13:36;;;;;;;12.63;8.93;;;;;;;10.14;57.88;100631.13;5097833;28;20023;-59
2023/04/15 00:16:02;;;;;;;11.48;8.57;;;;;;;10.13;57.46;100628.59;5115271;28;20470;-59
2023/04/15 00:18:30;;;;;;;13.95;8.88;;;;;;;10.09;58.07;100632.38;5109756;28;20027;-59
2023/04/15 00:20:56;;;;;;;14.43;8.70;;;;;;;10.00;58.00;100628.53;5097851;28;20027;-59
2023/04/15 00:23:22;;;;;;;14.80;7.80;;;;;;;9.87;59.01;100619.63;5102310;28;20511;-59
2023/04/15 00:25:47;;;;;;;16.38;7.78;;;;;;;9.94;58.63;100623.59;5103037;28;20024;-59
2023/04/15 00:28:13;;;;;;;11.43;7.20;;;;;;;9.82;59.16;100627.03;5094999;28;20467;-59
2023/04/15 00:30:38;;;;;;;11.82;7.55;;;;;;;9.75;60.18;100616.81;5094504;28;20418;-59
2023/04/15 00:33:03;;;;;;;10.80;7.78;;;;;;;9.66;60.54;100622.69;5094584;28;20027;-59
2023/04/15 00:35:32;;;;;;;15.43;8.38;;;;;;;9.67;60.04;100619.09;5094963;28;20073;-59
2023/04/15 00:37:58;;;;;;;11.90;8.10;;;;;;;9.60;60.49;100620.44;5094864;28;20027;-59
2023/04/15 00:40:25;;;;;;;13.95;7.85;;;;;;;9.61;60.65;100624.78;5094627;28;20491;-59
2023/04/15 00:42:51;;;;;;;13.23;7.60;;;;;;;9.44;62.02;100620.56;5094674;28;20462;-59
2023/04/15 00:45:16;;;;;;;13.73;8.38;;;;;;;9.17;63.20;100623.06;5093161;28;20016;-59
2023/04/15 00:47:43;;;;;;;12.98;8.32;;;;;;;9.25;62.70;100627.94;5094401;28;20077;-59
2023/04/15 00:50:10;;;;;;;12.90;7.93;;;;;;;9.10;63.32;100616.44;5094567;28;20081;-59
2023/04/15 00:52:36;;;;;;;14.88;8.45;;;;;;;8.95;63.82;100628.00;5094232;28;20427;-59
2023/04/15 00:55:03;;;;;;;12.18;8.82;;;;;;;8.96;64.02;100629.69;5091902;28;20024;-59
2023/04/15 00:57:29;;;;;;;13.48;8.60;;;;;;;8.79;64.74;100628.88;5093362;28;20020;-59
2023/04/15 00:59:55;;;;;;;12.95;8.82;;;;;;;8.77;64.72;100629.94;5094102;28;20048;-59
2023/04/15 01:02:21;;;;;;;14.85;8.80;;;;;;;8.61;65.31;100620.22;5093670;28;20024;-59
2023/04/15 01:04:47;;;;;;;15.07;9.85;;;;;;;8.92;64.01;100617.56;5094075;28;20084;-59
2023/04/15 01:07:12;;;;;;;16.65;9.77;;;;;;;8.74;64.87;100609.75;5093905;28;20511;-59
2023/04/15 01:09:44;;;;;;;12.77;9.02;;;;;;;8.89;64.05;100625.72;5092799;28;20023;-59
2023/04/15 01:12:13;;;;;;;15.25;10.15;;;;;;;8.62;64.70;100634.34;5089154;28;20058;-59
2023/04/15 01:14:38;;;;;;;14.48;9.75;;;;;;;8.67;64.88;100621.66;5094204;28;20024;-59
2023/04/15 01:17:03;;;;;;;12.65;9.35;;;;;;;8.68;64.76;100630.44;5093431;28;20356;-59
2023/04/15 01:19:30;;;;;;;15.00;9.45;;;;;;;8.71;64.30;100623.19;5094246;28;20039;-59
2023/04/15 01:21:56;;;;;;;14.00;9.43;;;;;;;8.57;64.80;100626.66;5092513;28;20020;-59
2023/04/15 01:24:26;;;;;;;13.52;10.50;;;;;;;8.60;64.72;100626.47;5093966;28;20078;-59
2023/04/15 01:26:51;;;;;;;12.13;10.60;;;;;;;8.48;65.11;100626.34;5093774;28;20095;-59
2023/04/15 01:29:17;;;;;;;14.52;9.43;;;;;;;8.41;65.23;100625.81;5092513;28;20123;-59
2023/04/15 01:31:53;;;;;;;12.07;9.77;;;;;;;8.49;65.25;100630.69;5093111;28;20039;-59
2023/04/15 01:34:19;;;;;;;12.85;9.50;;;;;;;8.46;65.48;100631.72;5093693;28;20028;-59
2023/04/15 01:36:45;;;;;;;12.02;9.55;;;;;;;8.34;66.10;100627.94;5092107;28;20024;-60
2023/04/15 01:39:11;;;;;;;12.90;9.88;;;;;;;8.31;65.68;100628.13;5093748;28;20031;-59
2023/04/15 01:41:36;;;;;;;13.00;11.27;;;;;;;8.24;67.13;100633.88;5075500;28;20035;-60
2023/04/15 01:44:02;;;;;;;12.60;10.30;;;;;;;8.19;67.36;100624.38;5093671;28;20035;-59
2023/04/15 01:46:28;;;;;;;15.38;11.70;;;;;;;8.10;67.83;100634.63;5092779;28;20050;-59
2023/04/15 01:48:53;;;;;;;15.23;10.75;;;;;;;8.07;67.88;100622.41;5093508;28;20032;-59
2023/04/15 01:51:18;;;;;;;15.93;11.25;;;;;;;8.04;68.08;100637.63;5093171;28;20081;-59
2023/04/15 01:53:49;;;;;;;14.48;11.68;;;;;;;7.95;68.12;100628.41;5093125;28;20032;-60
2023/04/15 01:56:14;;;;;;;14.85;11.52;;;;;;;7.94;68.76;100616.97;5093109;28;20036;-59
2023/04/15 01:58:40;;;;;;;15.52;12.40;;;;;;;8.00;68.23;100621.06;5092870;28;20055;-59
2023/04/15 02:01:09;;;;;;;14.30;11.35;;;;;;;7.97;67.22;100618.56;5090903;28;20044;-59
2023/04/15 02:03:36;;;;;;;14.77;11.63;;;;;;;8.01;67.46;100627.22;5092825;28;20036;-59
2023/04/15 02:06:01;;;;;;;17.58;12.07;;;;;;;7.99;67.33;100626.44;5091580;28;20031;-59
2023/04/15 02:08:27;;;;;;;17.40;12.20;;;;;;;7.97;67.34;100630.03;5092792;28;20475;-59
2023/04/15 02:10:52;;;;;;;15.90;12.20;;;;;;;8.09;67.01;100625.84;5092754;28;20026;-60
2023/04/15 02:13:20;;;;;;;16.52;12.25;;;;;;;8.08;67.53;100623.28;5092982;28;20020;-59
2023/04/15 02:15:51;;;;;;;17.05;11.60;;;;;;;7.96;68.06;100624.81;5095438;28;20032;-59
2023/04/15 02:18:16;;;;;;;13.93;11.27;;;;;;;7.85;67.66;100624.53;5072857;28;20044;-59
2023/04/15 02:20:45;;;;;;;13.52;11.98;;;;;;;7.90;68.40;100638.41;5091381;28;20099;-59
2023/04/15 02:23:11;;;;;;;15.32;11.57;;;;;;;7.95;67.69;100637.19;5092709;28;20103;-60
2023/04/15 02:25:37;;;;;;;15.75;12.30;;;;;;;8.05;67.69;100639.34;5091523;28;20055;-59
2023/04/15 02:28:05;;;;;;;17.98;11.80;;;;;;;8.01;67.61;100636.00;5091478;28;20034;-59
2023/04/15 02:30:33;;;;;;;13.45;12.13;;;;;;;7.94;68.28;100646.09;5092161;28;20024;-59
2023/04/15 02:33:03;;;;;;;14.98;12.80;;;;;;;7.79;68.60;100646.91;5094841;28;20027;-59
2023/04/15 02:35:28;;;;;;;16.88;11.75;;;;;;;7.83;68.38;100643.19;5110474;28;20031;-59
2023/04/15 02:37:53;;;;;;;15.18;13.13;;;;;;;7.54;69.45;100644.75;5104802;28;20042;-59
2023/04/15 02:40:19;;;;;;;15.15;12.65;;;;;;;7.67;69.19;100642.28;5095419;28;20470;-59
2023/04/15 02:42:44;;;;;;;15.65;13.18;;;;;;;7.56;69.61;100656.13;5110942;28;20032;-59
2023/04/15 02:45:15;;;;;;;18.80;12.73;;;;;;;7.63;68.99;100656.66;5111254;28;20084;-59
2023/04/15 02:47:40;;;;;;;16.65;13.32;;;;;;;7.56;68.70;100650.84;5110551;28;20042;-59
2023/04/15 02:50:07;;;;;;;16.05;12.95;;;;;;;7.80;68.32;100659.25;5109146;28;20462;-60
2023/04/15 02:52:33;;;;;;;15.32;13.15;;;;;;;7.71;68.22;100663.25;5112076;28;20019;-59
2023/04/15 02:55:01;;;;;;;15.00;13.52;;;;;;;7.77;68.27;100655.91;5111270;28;20039;-59
2023/04/15 02:57:29;;;;;;;15.32;12.77;;;;;;;7.83;68.03;100660.88;5109981;28;20027;-59
2023/04/15 02:59:54;;;;;;;14.88;13.38;;;;;;;7.96;67.58;100673.31;5110931;28;20402;-59
2023/04/15 03:02:20;;;;;;;15.55;12.90;;;;;;;7.96;67.68;100668.03;5108887;28;20024;-59
2023/04/15 03:04:45;;;;;;;15.65;13.88;;;;;;;7.74;68.39;100662.22;5110790;28;20603;-59
2023/04/15 03:07:11;;;;;;;14.20;12.80;;;;;;;7.88;68.37;100658.78;5110967;28;20098;-59
2023/04/15 03:09:38;;;;;;;14.90;13.35;;;;;;;7.67;68.73;100660.81;5108713;28;20398;-59
2023/04/15 03:12:08;;;;;;;15.18;13.38;;;;;;;7.42;69.71;100663.94;5096954;28;20126;-59
2023/04/15 03:14:34;;;;;;;14.32;12.85;;;;;;;7.33;69.87;100657.34;5108435;28;20028;-59
2023/04/15 03:16:59;;;;;;;18.65;12.75;;;;;;;7.31;70.20;100663.66;5110191;28;20034;-59
2023/04/15 03:19:25;;;;;;;16.65;13.48;;;;;;;7.28;70.62;100656.72;5110657;28;20054;-59
2023/04/15 03:21:51;;;;;;;14.10;12.30;;;;;;;7.44;70.06;100667.34;5110714;28;20394;-59
2023/04/15 03:24:16;;;;;;;14.55;12.93;;;;;;;7.36;70.46;100672.22;5109926;28;20026;-59
2023/04/15 03:26:44;;;;;;;16.85;13.50;;;;;;;7.32;70.46;100675.94;5109813;28;20027;-59
2023/04/15 03:29:10;;;;;;;14.75;13.23;;;;;;;7.37;70.44;100673.91;5110662;28;20390;-59
2023/04/15 03:31:35;;;;;;;14.40;13.00;;;;;;;7.22;71.01;100678.22;5110822;28;20033;-59
2023/04/15 03:34:03;;;;;;;16.10;14.52;;;;;;;7.39;70.98;100679.97;5109860;28;20028;-59
2023/04/15 03:36:30;;;;;;;17.65;13.65;;;;;;;7.37;70.68;100685.34;5107164;28;20024;-59
2023/04/15 03:38:56;;;;;;;14.23;12.93;;;;;;;7.34;70.52;100682.84;5094636;28;20020;-59
2023/04/15 03:41:22;;;;;;;16.35;13.93;;;;;;;7.17;71.49;100673.13;5105750;28;20023;-59
2023/04/15 03:43:47;;;;;;;15.95;14.40;;;;;;;7.16;72.42;100689.97;5107651;28;20019;-59
2023/04/15 03:46:13;;;;;;;15.18;13.68;;;;;;;6.96;72.53;100690.97;5107123;28;20019;-59
2023/04/15 03:48:38;;;;;;;15.32;13.82;;;;;;;6.77;72.94;100692.84;5101853;28;20049;-59
2023/04/15 03:51:04;;;;;;;15.55;13.05;;;;;;;7.01;73.07;100694.25;5091725;28;20028;-59
2023/04/15 03:53:29;;;;;;;15.40;14.02;;;;;;;6.81;73.43;100695.25;5090515;28;20402;-60
2023/04/15 03:55:55;;;;;;;16.02;14.52;;;;;;;6.80;73.63;100698.81;5091441;28;20031;-59
2023/04/15 03:58:20;;;;;;;16.63;14.82;;;;;;;6.86;73.70;100702.09;5091274;28;20024;-59
2023/04/15 04:00:45;;;;;;;18.83;14.52;;;;;;;6.88;73.51;100703.72;5090859;28;20048;-59
2023/04/15 04:03:11;;;;;;;16.83;14.90;;;;;;;6.82;73.91;100704.03;5091647;28;20390;-59
2023/04/15 04:05:37;;;;;;;19.85;14.82;;;;;;;6.68;73.70;100707.38;5089916;28;20052;-58
2023/04/15 04:08:03;;;;;;;15.02;12.50;;;;;;;6.96;73.07;100706.81;5091446;28;20028;-59
2023/04/15 04:10:31;;;;;;;16.35;14.65;;;;;;;6.79;73.67;100718.28;5091428;28;20027;-59
2023/04/15 04:13:00;;;;;;;16.42;14.75;;;;;;;6.94;73.04;100723.69;5091273;28;20028;-59
2023/04/15 04:15:25;;;;;;;14.00;12.65;;;;;;;6.79;73.96;100728.84;5090852;28;20052;-59
2023/04/15 04:17:51;;;;;;;16.35;14.85;;;;;;;6.89;73.90;100728.38;5091154;28;20107;-59
2023/04/15 04:20:16;;;;;;;15.93;14.43;;;;;;;6.92;73.52;100733.53;5091294;28;20020;-59
2023/04/15 04:22:42;;;;;;;15.90;14.38;;;;;;;6.80;73.89;100743.75;5091395;28;20028;-59
2023/04/15 04:25:09;;;;;;;16.60;15.07;;;;;;;6.84;74.02;100744.47;5091126;28;20450;-58
2023/04/15 04:27:35;;;;;;;15.23;12.88;;;;;;;6.77;73.87;100745.72;5091197;28;20016;-59
2023/04/15 04:30:00;;;;;;;16.73;15.07;;;;;;;6.66;74.23;100753.28;5093691;28;20024;-59
2023/04/15 04:32:26;;;;;;;20.75;15.05;;;;;;;6.75;74.08;100750.19;5093408;28;20035;-59
2023/04/15 04:34:51;;;;;;;16.95;15.40;;;;;;;6.60;74.61;100757.09;5093387;28;20043;-59
2023/04/15 04:37:19;;;;;;;14.02;12.23;;;;;;;6.74;74.20;100759.06;5094707;28;20351;-59
2023/04/15 04:39:44;;;;;;;17.33;15.45;;;;;;;6.66;74.40;100764.72;5093311;28;20016;-59
2023/04/15 04:42:10;;;;;;;18.15;16.33;;;;;;;6.68;75.15;100762.00;5093253;28;20026;-59
2023/04/15 04:44:36;;;;;;;15.50;13.98;;;;;;;6.82;74.65;100760.41;5094839;28;20024;-59
2023/04/15 04:47:03;;;;;;;17.75;16.00;;;;;;;6.70;74.74;100774.19;5094263;28;20096;-59
2023/04/15 04:49:29;;;;;;;13.77;12.43;;;;;;;6.82;74.43;100770.97;5093621;28;20043;-59
2023/04/15 04:51:55;;;;;;;17.83;16.17;;;;;;;6.77;74.92;100782.72;5094166;28;20032;-59
2023/04/15 04:54:21;;;;;;;16.02;14.15;;;;;;;6.80;75.07;100775.47;5092969;28;20111;-59
2023/04/15 04:56:46;;;;;;;17.95;16.45;;;;;;;6.67;75.85;100789.34;5092875;28;20107;-59
2023/04/15 04:59:12;;;;;;;18.48;16.55;;;;;;;6.74;75.90;100791.63;5092974;28;20398;-59
2023/04/15 05:01:37;;;;;;;16.65;14.98;;;;;;;6.73;76.08;100787.25;5092602;28;20069;-59
2023/04/15 05:04:03;;;;;;;17.45;15.98;;;;;;;6.68;75.70;100793.72;5093022;28;20020;-59
2023/04/15 05:06:30;;;;;;;18.60;16.75;;;;;;;6.72;76.37;100796.13;5101203;28;20296;-59
2023/04/15 05:08:55;;;;;;;17.70;16.10;;;;;;;6.67;76.25;100795.50;5084839;28;20028;-59
2023/04/15 05:11:21;;;;;;;18.48;16.65;;;;;;;6.88;76.39;100800.66;5096774;28;20470;-59
2023/04/15 05:13:46;;;;;;;15.43;13.65;;;;;;;6.71;76.80;100807.66;5092574;28;20020;-59
2023/04/15 05:16:11;;;;;;;18.02;16.25;;;;;;;6.76;76.77;100813.53;5093339;28;20077;-59
2023/04/15 05:18:37;;;;;;;16.55;14.80;;;;;;;6.79;76.83;100804.63;5093915;28;20121;-59
2023/04/15 05:21:02;;;;;;;18.33;16.63;;;;;;;6.78;76.98;100824.91;5091970;28;20024;-59
2023/04/15 05:23:28;;;;;;;15.45;13.43;;;;;;;6.83;76.60;100822.06;5103215;28;20111;-59
2023/04/15 05:25:53;;;;;;;17.75;15.90;;;;;;;6.90;77.13;100827.91;5099416;28;20519;-59
2023/04/15 05:28:19;;;;;;;18.13;16.45;;;;;;;6.76;77.24;100813.53;5089157;28;20177;-59
2023/04/15 05:30:44;;;;;;;17.52;14.88;;;;;;;6.91;77.27;100833.13;5093175;28;20028;-59
2023/04/15 05:33:10;;;;;;;17.90;16.35;;;;;;;6.90;76.88;100831.41;5093574;28;20491;-58
2023/04/15 05:35:36;;;;;;;18.40;16.80;;;;;;;6.89;77.54;100844.69;5092154;28;20020;-59
2023/04/15 05:38:03;;;;;;;17.70;16.10;;;;;;;7.02;77.30;100845.81;5093525;28;20325;-59
2023/04/15 05:40:31;;;;;;;18.45;16.70;;;;;;;7.06;76.70;100852.69;5093073;28;20024;-59
2023/04/15 05:42:57;;;;;;;16.02;14.63;;;;;;;7.07;76.82;100857.03;5092107;28;20106;-59
2023/04/15 05:45:22;;;;;;;19.30;17.60;;;;;;;6.99;76.49;100852.09;5092666;28;20119;-59
2023/04/15 05:47:49;;;;;;;18.42;16.73;;;;;;;7.05;76.75;100869.47;5092189;28;20483;-59
2023/04/15 05:50:15;;;;;;;18.05;16.17;;;;;;;7.05;77.60;100867.66;5093291;28;20507;-59
2023/04/15 05:52:41;;;;;;;19.05;17.25;;;;;;;7.01;77.04;100874.06;5093211;28;20024;-59
2023/04/15 05:55:06;;;;;;;19.13;17.23;;;;;;;7.04;77.30;100863.31;5093002;28;20024;-59
2023/04/15 05:57:32;;;;;;;17.23;15.60;;;;;;;7.17;76.79;100870.66;5093259;28;20020;-59
2023/04/15 05:59:57;;;;;;;18.70;17.08;;;;;;;7.06;77.99;100879.13;5091733;28;20051;-59
2023/04/15 06:02:23;;;;;;;19.67;17.95;;;;;;;7.19;77.30;100880.25;5092722;28;20105;-59
2023/04/15 06:04:48;;;;;;;19.23;17.63;;;;;;;7.10;77.68;100883.31;5092062;28;20020;-59
2023/04/15 06:07:14;;;;;;;15.18;13.57;;;;;;;7.27;77.67;100893.94;5092644;28;20020;-59
2023/04/15 06:09:40;;;;;;;18.08;16.50;;;;;;;7.31;77.21;100899.09;5094108;28;20114;-59
2023/04/15 06:12:10;;;;;;;19.70;17.80;;;;;;;7.31;77.55;100902.59;5104547;27;20074;-59
2023/04/15 06:14:36;;;;;;;19.23;17.50;;;;;;;7.27;77.73;100901.03;5092698;28;20024;-59
2023/04/15 06:17:01;;;;;;;20.00;18.10;;;;;;;7.32;77.37;100904.28;5091820;28;20359;-59
2023/04/15 06:19:27;;;;;;;19.95;17.95;;;;;;;7.40;77.90;100912.72;5094097;28;20020;-59
2023/04/15 06:21:52;;;;;;;19.45;17.75;;;;;;;7.53;77.57;100917.41;5092400;28;20371;-59
2023/04/15 06:24:18;;;;;;;19.83;17.83;;;;;;;7.52;76.87;100898.03;5092511;28;20027;-59
2023/04/15 06:26:43;;;;;;;19.65;17.75;;;;;;;7.64;77.03;100925.69;5092338;28;20024;-59
2023/04/15 06:29:08;;;;;;;19.75;17.92;;;;;;;7.73;76.94;100919.94;5091107;28;20031;-59
2023/04/15 06:31:34;;;;;;;20.02;18.30;;;;;;;7.79;77.25;100930.19;5090618;28;20024;-59
2023/04/15 06:34:00;;;;;;;20.55;18.38;;;;;;;7.87;76.43;100930.69;5092316;28;20048;-59
2023/04/15 06:36:25;;;;;;;19.85;18.05;;;;;;;8.00;76.10;100936.22;5092078;28;20079;-59
2023/04/15 06:38:50;;;;;;;19.92;18.13;;;;;;;8.15;75.68;100948.69;5092040;28;20059;-59
2023/04/15 06:41:20;;;;;;;20.15;18.23;;;;;;;8.21;75.47;100944.88;5092217;28;20563;-59
2023/04/15 06:43:45;;;;;;;20.75;18.63;;;;;;;8.27;75.70;100954.28;5090989;28;20020;-59
2023/04/15 06:46:11;;;;;;;18.95;17.30;;;;;;;8.39;75.56;100954.53;5091660;28;20028;-59
2023/04/15 06:48:36;;;;;;;19.75;17.85;;;;;;;8.49;74.75;100954.91;5091035;28;20391;-59
2023/04/15 06:51:05;;;;;;;19.42;17.75;;;;;;;8.56;75.19;100956.31;5091581;28;20028;-59
2023/04/15 06:53:31;;;;;;;19.70;17.75;;;;;;;8.61;74.09;100966.66;5090430;28;20036;-59
2023/04/15 06:55:56;;;;;;;20.02;18.25;;;;;;;8.68;73.85;100968.06;5092042;28;20039;-59
2023/04/15 06:58:21;;;;;;;19.27;17.50;;;;;;;8.76;74.62;100980.88;5092079;28;20730;-59
2023/04/15 07:00:47;;;;;;;18.85;17.08;;;;;;;8.93;74.09;100982.63;5091445;28;20404;-59
2023/04/15 07:03:13;;;;;;;18.85;17.23;;;;;;;8.97;73.81;100985.06;5090738;28;20032;-59
2023/04/15 07:05:40;;;;;;;19.55;17.65;;;;;;;9.03;74.05;100983.84;5091735;28;20081;-59
2023/04/15 07:08:05;;;;;;;18.67;17.08;;;;;;;9.10;73.80;100979.94;5090326;28;20023;-59
2023/04/15 07:10:32;;;;;;;20.00;18.05;;;;;;;9.22;73.12;100995.16;5091870;28;20042;-59
2023/04/15 07:12:57;;;;;;;18.33;16.67;;;;;;;9.27;72.86;101002.91;5090740;28;20024;-59
2023/04/15 07:15:25;;;;;;;19.05;17.27;;;;;;;9.35;72.19;101011.25;5091219;28;20035;-59
2023/04/15 07:17:50;;;;;;;18.05;16.30;;;;;;;9.35;71.53;101003.31;5091785;28;20028;-59
2023/04/15 07:20:16;;;;;;;19.33;17.48;;;;;;;9.44;72.65;101010.78;5091386;28;20080;-59
2023/04/15 07:22:44;;;;;;;18.25;16.73;;;;;;;9.54;72.09;101011.97;5091737;28;20032;-59
2023/04/15 07:25:09;;;;;;;18.95;17.15;;;;;;;9.61;71.74;101012.47;5106457;28;20492;-59
2023/04/15 07:27:35;;;;;;;18.30;16.70;;;;;;;9.81;72.11;101013.16;5110774;28;20107;-59
2023/04/15 07:30:01;;;;;;;19.40;17.45;;;;;;;9.99;72.72;101017.41;5112416;28;20019;-59
2023/04/15 07:32:26;;;;;;;18.50;17.00;;;;;;;10.26;71.29;101025.56;5108097;28;20054;-59
2023/04/15 07:34:52;;;;;;;17.92;16.40;;;;;;;10.33;69.99;101029.59;5110719;28;20036;-59
2023/04/15 07:37:17;;;;;;;18.40;16.63;;;;;;;10.38;70.03;101029.31;5105943;28;20070;-59
2023/04/15 07:39:43;;;;;;;17.45;15.98;;;;;;;10.62;69.16;101038.50;5098328;28;20026;-59
2023/04/15 07:42:09;;;;;;;17.77;16.27;;;;;;;10.73;68.26;101042.31;5102774;28;20197;-59
2023/04/15 07:44:34;;;;;;;17.15;15.68;;;;;;;10.80;67.32;101031.22;5088885;28;20032;-59
2023/04/15 07:47:01;;;;;;;16.52;14.93;;;;;;;10.97;66.46;101043.50;5091774;28;20107;-59
2023/04/15 07:49:27;;;;;;;14.98;13.77;;;;;;;11.09;66.13;101042.72;5090588;28;20085;-59
2023/04/15 07:51:52;;;;;;;15.77;14.48;;;;;;;11.12;64.37;101050.53;5091488;28;20469;-59
2023/04/15 07:54:20;;;;;;;15.43;14.07;;;;;;;11.22;65.29;101047.28;5090293;28;20028;-59
2023/04/15 07:56:45;;;;;;;15.35;14.05;;;;;;;11.47;64.80;101063.44;5090129;28;20402;-59
2023/04/15 07:59:11;;;;;;;15.73;14.27;;;;;;;11.53;65.79;101063.03;5094549;28;20056;-59
2023/04/15 08:01:37;;;;;;;14.88;13.60;;;;;;;11.52;63.42;101060.47;5096014;28;20051;-59
2023/04/15 08:04:05;;;;;;;16.27;14.80;;;;;;;11.57;62.85;101069.88;5104749;28;20504;-59
2023/04/15 08:06:31;;;;;;;15.35;14.05;;;;;;;11.69;62.40;101060.25;5108270;28;20231;-59
2023/04/15 08:08:57;;;;;;;14.30;13.10;;;;;;;11.88;62.13;101073.25;5108164;28;20027;-59
2023/04/15 08:11:23;;;;;;;14.52;13.32;;;;;;;11.91;62.00;101073.09;5093617;28;20032;-59
2023/04/15 08:13:48;;;;;;;15.75;14.15;;;;;;;12.06;62.51;101079.22;5077136;28;20122;-59
2023/04/15 08:16:19;;;;;;;15.75;14.18;;;;;;;12.17;63.16;101091.81;5094409;28;20498;-59
2023/04/15 08:18:46;;;;;;;14.13;12.60;;;;;;;12.24;62.06;101086.00;5094674;28;20107;-59
2023/04/15 08:21:12;;;;;;;14.90;13.50;;;;;;;12.17;61.09;101095.34;5094905;28;20031;-59
2023/04/15 08:23:38;;;;;;;13.23;12.13;;;;;;;12.16;61.62;101093.63;5095193;28;20035;-59
2023/04/15 08:26:04;;;;;;;13.77;12.77;;;;;;;12.28;61.37;101097.31;5094695;28;20024;-59
2023/04/15 08:28:29;;;;;;;13.25;12.05;;;;;;;12.45;60.83;101106.88;5094885;28;20081;-59
2023/04/15 08:30:55;;;;;;;11.88;10.93;;;;;;;12.43;59.36;101106.09;5094143;28;20096;-60
2023/04/15 08:33:20;;;;;;;12.68;11.43;;;;;;;12.55;58.55;101105.28;5094083;28;20032;-59
2023/04/15 08:35:46;;;;;;;13.25;12.05;;;;;;;12.62;59.61;101111.94;5099490;28;20028;-59
2023/04/15 08:38:11;;;;;;;13.32;11.90;;;;;;;12.73;59.46;101116.53;5108796;28;20390;-59
2023/04/15 08:40:42;;;;;;;13.15;11.85;;;;;;;12.79;59.52;101112.59;5094509;28;20114;-59
2023/04/15 08:43:23;;;;;;;14.40;13.10;;;;;;;12.95;59.01;101131.94;5094570;28;20089;-59
2023/04/15 08:45:50;;;;;;;12.63;11.50;;;;;;;13.02;58.43;101127.03;5092486;28;20093;-59
2023/04/15 08:48:16;;;;;;;11.57;10.68;;;;;;;13.11;56.55;101132.59;5094984;28;20086;-59
2023/04/15 08:50:42;;;;;;;11.68;10.68;;;;;;;13.36;56.20;101131.78;5114758;28;20023;-59
2023/04/15 08:53:08;;;;;;;10.95;10.05;;;;;;;13.47;56.23;101146.19;5112062;28;20106;-59
2023/04/15 08:55:38;;;;;;;11.35;10.25;;;;;;;13.58;54.89;101147.13;5110810;28;20039;-60
2023/04/15 08:58:04;;;;;;;11.25;10.20;;;;;;;13.59;55.03;101150.69;5102298;28;20076;-59
2023/04/15 09:00:32;;;;;;;10.57;9.35;;;;;;;13.67;54.38;101156.31;5093687;28;20072;-59
2023/04/15 09:02:58;;;;;;;10.35;9.32;;;;;;;13.68;54.21;101155.38;5092857;28;20027;-59
2023/04/15 09:05:26;;;;;;;9.60;8.77;;;;;;;13.82;53.03;101165.94;5102236;28;20023;-59
2023/04/15 09:07:51;;;;;;;10.38;9.38;;;;;;;13.75;51.89;101145.09;5114608;28;20030;-59
2023/04/15 09:10:17;;;;;;;11.60;10.50;;;;;;;13.86;52.66;101177.25;5101388;28;20032;-59
2023/04/15 09:12:43;;;;;;;8.32;7.55;;;;;;;13.88;49.73;101169.97;5095089;28;20035;-59
2023/04/15 09:15:11;;;;;;;10.23;8.02;;;;;;;14.01;50.67;101178.81;5092803;28;20016;-59
2023/04/15 09:17:42;;;;;;;10.10;8.13;;;;;;;14.16;51.15;101184.03;5100647;28;20160;-59
2023/04/15 09:20:08;;;;;;;9.70;7.90;;;;;;;14.00;48.51;101198.53;5114256;28;20035;-59
2023/04/15 09:22:33;;;;;;;9.23;8.32;;;;;;;14.12;50.75;101198.56;5110556;28;20024;-59
2023/04/15 09:24:59;;;;;;;9.05;8.15;;;;;;;14.08;50.28;101206.81;5113223;28;20027;-59
2023/04/15 09:27:25;;;;;;;10.10;9.20;;;;;;;14.16;50.69;101205.44;5112809;28;20016;-59
2023/04/15 09:29:52;;;;;;;9.88;8.95;;;;;;;14.11;49.99;101212.94;5111440;28;20058;-59
2023/04/15 09:32:19;;;;;;;9.45;8.65;;;;;;;14.04;50.48;101212.53;5112010;28;20490;-59
2023/04/15 09:34:46;;;;;;;9.55;7.88;;;;;;;14.12;49.70;101212.84;5109388;28;20114;-59
2023/04/15 09:37:14;;;;;;;9.43;8.63;;;;;;;14.23;49.23;101212.88;5113822;28;20440;-59
2023/04/15 09:39:51;;;;;;;8.57;7.78;;;;;;;14.50;49.39;101225.22;5110664;28;20028;-59
2023/04/15 09:42:23;;;;;;;9.63;8.63;;;;;;;14.52;47.86;101213.47;5112140;28;20115;-59
2023/04/15 09:44:49;;;;;;;10.73;9.73;;;;;;;14.56;49.00;101211.44;5113643;28;20494;-60
2023/04/15 09:47:30;;;;;;;9.27;8.43;;;;;;;14.67;49.44;101221.34;5108135;28;20391;-59
2023/04/15 09:50:00;;;;;;;7.97;7.38;;;;;;;14.79;49.16;101220.41;5112265;28;20015;-59
2023/04/15 09:52:26;;;;;;;9.65;8.77;;;;;;;14.94;49.14;101223.75;5111907;28;20032;-59
2023/04/15 09:54:57;;;;;;;9.82;8.98;;;;;;;14.98;49.21;101214.53;5110788;28;20409;-59
2023/04/15 09:57:23;;;;;;;9.35;8.65;;;;;;;15.11;47.58;101225.16;5104381;28;20032;-59
2023/04/15 09:59:49;;;;;;;9.63;7.03;;;;;;;15.27;45.50;101232.91;5103371;28;20054;-59
2023/04/15 10:02:17;;;;;;;7.15;6.55;;;;;;;15.42;46.39;101243.28;5092451;28;20096;-59
2023/04/15 10:04:44;;;;;;;7.88;7.18;;;;;;;15.27;46.64;101230.22;5105418;28;20027;-59
2023/04/15 10:07:11;;;;;;;6.82;6.22;;;;;;;15.54;46.55;101238.81;5092812;28;20050;-59
2023/04/15 10:09:37;;;;;;;8.10;7.40;;;;;;;15.71;47.27;101248.25;5091765;28;20020;-59
2023/04/15 10:12:04;;;;;;;8.70;7.82;;;;;;;15.47;48.08;101244.75;5092691;28;20055;-59
2023/04/15 10:14:33;;;;;;;8.25;7.53;;;;;;;15.39;48.35;101254.25;5092745;28;20550;-59
2023/04/15 10:17:01;;;;;;;8.25;7.35;;;;;;;15.62;47.51;101249.81;5091163;28;20028;-59
2023/04/15 10:19:35;;;;;;;79.10;11.68;;;;;;;15.48;47.41;101252.69;5092916;28;20027;-59
2023/04/15 10:22:01;;;;;;;8.10;7.38;;;;;;;15.59;45.20;101254.56;5092844;28;20088;-59
2023/04/15 10:24:27;;;;;;;10.45;8.10;;;;;;;15.60;47.72;101250.88;5092836;28;20016;-59
2023/04/15 10:26:54;;;;;;;45.67;10.02;;;;;;;15.34;47.15;101253.75;5092625;28;20039;-59
2023/04/15 10:29:19;;;;;;;8.45;7.78;;;;;;;15.27;47.88;101254.34;5092356;28;20035;-60
2023/04/15 10:31:45;;;;;;;8.73;7.40;;;;;;;15.41;47.55;101251.44;5090895;28;20379;-59
2023/04/15 10:34:12;;;;;;;7.97;7.32;;;;;;;15.75;47.51;101256.91;5092341;28;20105;-60
2023/04/15 10:36:37;;;;;;;8.20;6.55;;;;;;;15.74;45.20;101269.47;5091178;28;20542;-59
2023/04/15 10:39:32;;;;;;;6.90;6.45;;;;;;;15.66;46.26;101271.84;5092510;28;20020;-59
2023/04/15 10:42:18;;;;;;;6.53;6.03;;;;;;;15.46;45.20;101270.72;5092315;28;20020;-59
2023/04/15 10:44:51;;;;;;;7.13;6.32;;;;;;;15.57;44.02;101268.06;5091081;28;20360;-59
2023/04/15 10:47:19;;;;;;;7.00;6.40;;;;;;;15.81;45.20;101269.84;5091849;28;20080;-59
2023/04/15 10:49:55;;;;;;;6.43;5.78;;;;;;;16.15;44.78;101281.44;5091699;28;20383;-59
2023/04/15 10:52:24;;;;;;;6.22;5.82;;;;;;;16.10;43.97;101273.75;5089132;28;20031;-60
2023/04/15 10:55:02;;;;;;;6.90;6.40;;;;;;;16.14;45.11;101277.03;5088540;28;20059;-59
2023/04/15 10:57:37;;;;;;;6.38;5.78;;;;;;;16.45;43.11;101277.28;5070286;28;20048;-59
2023/04/15 11:00:10;;;;;;;17.70;6.40;;;;;;;16.75;42.76;101280.13;5076818;28;20048;-59
2023/04/15 11:03:06;;;;;;;6.32;5.68;;;;;;;17.03;43.05;101281.44;5071195;28;20565;-60
2023/04/15 11:05:41;;;;;;;6.03;5.53;;;;;;;16.94;43.69;101281.31;5089018;28;20020;-60
2023/04/15 11:08:08;;;;;;;6.72;5.72;;;;;;;16.22;42.67;101279.13;5090006;28;20406;-60
2023/04/15 11:10:33;;;;;;;7.10;6.60;;;;;;;16.00;43.53;101288.88;5091093;28;20063;-60
2023/04/15 11:13:02;;;;;;;5.57;5.13;;;;;;;15.95;43.93;101282.19;5084133;28;20102;-60
2023/04/15 11:15:32;;;;;;;7.40;6.75;;;;;;;15.96;43.60;101270.47;5086739;28;20031;-59
2023/04/15 11:18:08;;;;;;;6.65;6.05;;;;;;;16.38;42.34;101300.22;5072499;28;20105;-60